Time,TemperatureF,DewpointF,PressureIn,WindDirection,WindDirectionDegrees,WindSpeedMPH,WindSpeedGustMPH,Humidity,HourlyPrecipIn,Conditions,Clouds,dailyrainin,SoftwareType,DateUTC
2013-04-10 00:02:00,72.3,61.6,30.03,North,-999,-999.0,-999.0,69,0.00,,,0.00,WSDL version 420,2013-04-10 04:02:00,
2013-04-10 00:07:00,72.3,61.6,30.06,North,-999,-999.0,-999.0,69,0.00,,,0.00,WSDL version 420,2013-04-10 04:07:00,
2013-04-10 00:13:00,72.3,61.6,30.06,North,-999,-999.0,-999.0,69,0.00,,,0.00,WSDL version 420,2013-04-10 04:13:00,
2013-04-10 00:22:00,72.3,61.8,30.06,North,-999,-999.0,-999.0,69,0.00,,,0.00,WSDL version 420,2013-04-10 04:22:00,
2013-04-10 00:28:00,72.3,62.0,30.06,North,-999,-999.0,-999.0,70,0.00,,,0.00,WSDL version 420,2013-04-10 04:28:00,
2013-04-10 00:37:00,72.1,61.6,30.06,North,-999,-999.0,-999.0,70,0.00,,,0.00,WSDL version 420,2013-04-10 04:37:00,
2013-04-10 00:42:00,72.1,61.6,30.06,North,-999,-999.0,-999.0,69,0.00,,,0.00,WSDL version 420,2013-04-10 04:42:00,
2013-04-10 00:47:00,72.1,61.7,30.06,North,-999,-999.0,-999.0,70,0.00,,,0.00,WSDL version 420,2013-04-10 04:47:00,
2013-04-10 00:52:00,72.1,61.7,30.06,North,-999,-999.0,-999.0,70,0.00,,,0.00,WSDL version 420,2013-04-10 04:52:00,
2013-04-10 00:57:00,72.1,61.8,30.06,North,-999,-999.0,-999.0,70,0.00,,,0.00,WSDL version 420,2013-04-10 04:57:00,
2013-04-10 01:02:00,72.2,61.9,30.06,North,-999,-999.0,-999.0,70,0.00,,,0.00,WSDL version 420,2013-04-10 05:02:00,
2013-04-10 01:07:00,72.3,62.0,30.06,North,-999,-999.0,-999.0,70,0.00,,,0.00,WSDL version 420,2013-04-10 05:07:00,
2013-04-10 01:12:00,72.3,62.0,30.06,North,-999,-999.0,-999.0,70,0.00,,,0.00,WSDL version 420,2013-04-10 05:12:00,
2013-04-10 01:17:00,72.3,62.0,30.06,North,-999,-999.0,-999.0,70,0.00,,,0.00,WSDL version 420,2013-04-10 05:17:00,
2013-04-10 01:22:00,72.3,62.0,30.06,North,-999,-999.0,-999.0,70,0.00,,,0.00,WSDL version 420,2013-04-10 05:22:00,
2013-04-10 01:27:00,72.3,61.9,30.06,North,-999,-999.0,-999.0,70,0.00,,,0.00,WSDL version 420,2013-04-10 05:27:00,
2013-04-10 01:33:00,72.1,61.8,30.06,North,-999,-999.0,-999.0,70,0.00,,,0.00,WSDL version 420,2013-04-10 05:33:00,
2013-04-10 01:42:00,72.1,62.2,30.06,North,-999,-999.0,-999.0,71,0.00,,,0.00,WSDL version 420,2013-04-10 05:42:00,
2013-04-10 01:47:00,72.1,62.2,30.06,North,-999,-999.0,-999.0,71,0.00,,,0.00,WSDL version 420,2013-04-10 05:47:00,
2013-04-10 01:52:00,72.1,62.1,30.03,North,-999,-999.0,-999.0,71,0.00,,,0.00,WSDL version 420,2013-04-10 05:52:00,
2013-04-10 01:57:00,72.0,62.1,30.03,North,-999,-999.0,-999.0,71,0.00,,,0.00,WSDL version 420,2013-04-10 05:57:00,
2013-04-10 02:02:00,72.0,62.1,30.03,North,-999,-999.0,-999.0,71,0.00,,,0.00,WSDL version 420,2013-04-10 06:02:00,
2013-04-10 02:08:00,72.0,62.1,30.06,North,-999,-999.0,-999.0,71,0.00,,,0.00,WSDL version 420,2013-04-10 06:08:00,
2013-04-10 02:17:00,71.8,62.2,30.06,North,-999,-999.0,-999.0,72,0.00,,,0.00,WSDL version 420,2013-04-10 06:17:00,
2013-04-10 02:23:00,71.7,62.2,30.03,North,-999,-999.0,-999.0,72,0.00,,,0.00,WSDL version 420,2013-04-10 06:23:00,
2013-04-10 02:32:00,71.5,62.3,30.03,North,-999,-999.0,-999.0,73,0.00,,,0.00,WSDL version 420,2013-04-10 06:32:00,
2013-04-10 02:37:00,71.3,62.2,30.00,North,-999,-999.0,-999.0,73,0.00,,,0.00,WSDL version 420,2013-04-10 06:37:00,
2013-04-10 02:42:00,71.2,62.5,30.00,North,-999,-999.0,-999.0,74,0.00,,,0.00,WSDL version 420,2013-04-10 06:42:00,
2013-04-10 02:47:00,71.0,62.4,30.00,North,-999,-999.0,-999.0,75,0.00,,,0.00,WSDL version 420,2013-04-10 06:47:00,
2013-04-10 02:52:00,70.9,62.6,30.00,North,-999,-999.0,-999.0,75,0.00,,,0.00,WSDL version 420,2013-04-10 06:52:00,
2013-04-10 02:57:00,70.9,62.6,30.00,North,-999,-999.0,-999.0,75,0.00,,,0.00,WSDL version 420,2013-04-10 06:57:00,
2013-04-10 03:02:00,70.8,62.6,30.00,North,-999,-999.0,-999.0,76,0.00,,,0.00,WSDL version 420,2013-04-10 07:02:00,
2013-04-10 03:08:00,70.6,62.7,30.00,North,-999,-999.0,-999.0,76,0.00,,,0.00,WSDL version 420,2013-04-10 07:08:00,
2013-04-10 03:13:00,70.5,62.6,30.00,North,-999,-999.0,-999.0,76,0.00,,,0.00,WSDL version 420,2013-04-10 07:13:00,
2013-04-10 03:22:00,70.3,62.6,30.00,North,-999,-999.0,-999.0,77,0.00,,,0.00,WSDL version 420,2013-04-10 07:22:00,
2013-04-10 03:27:00,70.2,62.6,30.00,North,-999,-999.0,-999.0,77,0.00,,,0.00,WSDL version 420,2013-04-10 07:27:00,
2013-04-10 03:32:00,70.0,62.4,30.00,North,-999,-999.0,-999.0,77,0.00,,,0.00,WSDL version 420,2013-04-10 07:32:00,
2013-04-10 03:37:00,69.8,62.3,29.97,North,-999,-999.0,-999.0,77,0.00,,,0.00,WSDL version 420,2013-04-10 07:37:00,
2013-04-10 03:42:00,69.9,62.7,29.97,North,-999,-999.0,-999.0,78,0.00,,,0.00,WSDL version 420,2013-04-10 07:42:00,
2013-04-10 03:48:00,69.8,62.6,29.97,North,-999,-999.0,-999.0,78,0.00,,,0.00,WSDL version 420,2013-04-10 07:48:00,
2013-04-10 03:58:00,69.6,62.8,30.00,North,-999,-999.0,-999.0,79,0.00,,,0.00,WSDL version 420,2013-04-10 07:58:00,
2013-04-10 04:08:00,69.4,62.7,29.97,North,-999,-999.0,-999.0,80,0.00,,,0.00,WSDL version 420,2013-04-10 08:08:00,
2013-04-10 04:17:00,69.4,63.0,29.97,North,-999,-999.0,-999.0,80,0.00,,,0.00,WSDL version 420,2013-04-10 08:17:00,
2013-04-10 04:22:00,69.4,63.0,30.00,North,-999,-999.0,-999.0,80,0.00,,,0.00,WSDL version 420,2013-04-10 08:22:00,
2013-04-10 04:28:00,69.4,63.0,30.00,North,-999,-999.0,-999.0,80,0.00,,,0.00,WSDL version 420,2013-04-10 08:28:00,
2013-04-10 04:33:00,69.4,63.3,30.00,North,-999,-999.0,-999.0,81,0.00,,,0.00,WSDL version 420,2013-04-10 08:33:00,
2013-04-10 04:38:00,69.4,63.3,30.00,North,-999,-999.0,-999.0,81,0.00,,,0.00,WSDL version 420,2013-04-10 08:38:00,
2013-04-10 04:47:00,69.1,63.0,30.00,North,-999,-999.0,-999.0,81,0.00,,,0.00,WSDL version 420,2013-04-10 08:47:00,
2013-04-10 04:52:00,69.1,63.0,30.00,North,-999,-999.0,-999.0,81,0.00,,,0.00,WSDL version 420,2013-04-10 08:52:00,
2013-04-10 04:57:00,69.0,63.2,30.00,North,-999,-999.0,-999.0,82,0.00,,,0.00,WSDL version 420,2013-04-10 08:57:00,
2013-04-10 05:02:00,68.9,63.3,30.00,North,-999,-999.0,-999.0,82,0.00,,,0.00,WSDL version 420,2013-04-10 09:02:00,
2013-04-10 05:07:00,68.8,63.2,30.00,North,-999,-999.0,-999.0,82,0.00,,,0.00,WSDL version 420,2013-04-10 09:07:00,
2013-04-10 05:12:00,68.9,63.3,30.00,North,-999,-999.0,-999.0,82,0.00,,,0.00,WSDL version 420,2013-04-10 09:12:00,
2013-04-10 05:18:00,68.8,63.2,30.00,North,-999,-999.0,-999.0,82,0.00,,,0.00,WSDL version 420,2013-04-10 09:18:00,
2013-04-10 05:23:00,68.7,63.1,30.00,North,-999,-999.0,-999.0,82,0.00,,,0.00,WSDL version 420,2013-04-10 09:23:00,
2013-04-10 05:32:00,68.8,63.6,30.00,North,-999,-999.0,-999.0,83,0.00,,,0.00,WSDL version 420,2013-04-10 09:32:00,
2013-04-10 05:37:00,68.7,63.8,30.00,North,-999,-999.0,-999.0,84,0.00,,,0.00,WSDL version 420,2013-04-10 09:37:00,
2013-04-10 05:42:00,68.6,63.7,30.00,North,-999,-999.0,-999.0,84,0.00,,,0.00,WSDL version 420,2013-04-10 09:42:00,
2013-04-10 05:47:00,68.4,63.5,30.00,North,-999,-999.0,-999.0,84,0.00,,,0.00,WSDL version 420,2013-04-10 09:47:00,
2013-04-10 05:52:00,68.4,63.5,30.00,North,-999,-999.0,-999.0,84,0.00,,,0.00,WSDL version 420,2013-04-10 09:52:00,
2013-04-10 05:57:00,68.4,63.7,30.00,North,-999,-999.0,-999.0,86,0.00,,,0.00,WSDL version 420,2013-04-10 09:57:00,
2013-04-10 06:02:00,68.4,63.9,30.00,North,-999,-999.0,-999.0,86,0.00,,,0.00,WSDL version 420,2013-04-10 10:02:00,
2013-04-10 06:07:00,68.4,63.9,30.00,North,-999,-999.0,-999.0,86,0.00,,,0.00,WSDL version 420,2013-04-10 10:07:00,
2013-04-10 06:12:00,68.2,63.7,30.00,North,-999,-999.0,-999.0,86,0.00,,,0.00,WSDL version 420,2013-04-10 10:12:00,
2013-04-10 06:17:00,68.2,63.7,30.00,North,-999,-999.0,-999.0,86,0.00,,,0.00,WSDL version 420,2013-04-10 10:17:00,
2013-04-10 06:22:00,68.2,64.1,30.00,North,-999,-999.0,-999.0,87,0.00,,,0.00,WSDL version 420,2013-04-10 10:22:00,
2013-04-10 06:28:00,68.1,64.0,30.00,North,-999,-999.0,-999.0,87,0.00,,,0.00,WSDL version 420,2013-04-10 10:28:00,
2013-04-10 06:37:00,67.8,63.7,30.00,North,-999,-999.0,-999.0,87,0.00,,,0.00,WSDL version 420,2013-04-10 10:37:00,
2013-04-10 06:42:00,67.8,63.7,30.00,North,-999,-999.0,-999.0,87,0.00,,,0.00,WSDL version 420,2013-04-10 10:42:00,
2013-04-10 06:47:00,67.8,63.9,30.00,North,-999,-999.0,-999.0,88,0.00,,,0.00,WSDL version 420,2013-04-10 10:47:00,
2013-04-10 06:52:00,67.8,64.1,29.97,North,-999,-999.0,-999.0,88,0.00,,,0.00,WSDL version 420,2013-04-10 10:52:00,
2013-04-10 06:57:00,67.6,63.9,29.97,North,-999,-999.0,-999.0,88,0.00,,,0.00,WSDL version 420,2013-04-10 10:57:00,
2013-04-10 07:02:00,67.6,63.9,29.97,North,-999,-999.0,-999.0,88,0.00,,,0.00,WSDL version 420,2013-04-10 11:02:00,
2013-04-10 07:07:00,67.6,63.9,30.00,North,-999,-999.0,-999.0,88,0.00,,,0.00,WSDL version 420,2013-04-10 11:07:00,
2013-04-10 07:12:00,67.5,63.7,30.00,North,-999,-999.0,-999.0,88,0.00,,,0.00,WSDL version 420,2013-04-10 11:12:00,
2013-04-10 07:17:00,67.5,63.8,30.00,North,-999,-999.0,-999.0,89,0.00,,,0.00,WSDL version 420,2013-04-10 11:17:00,
2013-04-10 07:22:00,67.6,64.2,30.00,North,-999,-999.0,-999.0,89,0.00,,,0.00,WSDL version 420,2013-04-10 11:22:00,
2013-04-10 07:27:00,67.7,64.4,30.00,North,-999,-999.0,-999.0,89,0.00,,,0.00,WSDL version 420,2013-04-10 11:27:00,
2013-04-10 07:32:00,68.0,64.6,30.00,North,-999,-999.0,-999.0,89,0.00,,,0.00,WSDL version 420,2013-04-10 11:32:00,
2013-04-10 07:38:00,68.2,65.1,30.00,North,-999,-999.0,-999.0,90,0.00,,,0.00,WSDL version 420,2013-04-10 11:38:00,
2013-04-10 07:47:00,69.1,66.0,30.00,North,-999,-999.0,-999.0,90,0.00,,,0.00,WSDL version 420,2013-04-10 11:47:00,
2013-04-10 07:52:00,69.6,66.6,30.03,North,-999,-999.0,-999.0,90,0.00,,,0.00,WSDL version 420,2013-04-10 11:52:00,
2013-04-10 07:57:00,70.0,67.0,30.03,North,-999,-999.0,-999.0,90,0.00,,,0.00,WSDL version 420,2013-04-10 11:57:00,
2013-04-10 08:02:00,70.4,67.2,30.03,North,-999,-999.0,-999.0,89,0.00,,,0.00,WSDL version 420,2013-04-10 12:02:00,
2013-04-10 08:07:00,70.9,67.5,30.03,North,-999,-999.0,-999.0,89,0.00,,,0.00,WSDL version 420,2013-04-10 12:07:00,
2013-04-10 08:12:00,71.4,67.9,30.03,North,-999,-999.0,-999.0,88,0.00,,,0.00,WSDL version 420,2013-04-10 12:12:00,
2013-04-10 08:17:00,71.9,67.9,30.03,North,-999,-999.0,-999.0,87,0.00,,,0.00,WSDL version 420,2013-04-10 12:17:00,
2013-04-10 08:22:00,72.3,67.8,30.03,North,-999,-999.0,-999.0,86,0.00,,,0.00,WSDL version 420,2013-04-10 12:22:00,
2013-04-10 08:27:00,72.9,67.8,30.03,North,-999,-999.0,-999.0,82,0.00,,,0.00,WSDL version 420,2013-04-10 12:27:00,
2013-04-10 08:32:00,73.4,67.5,30.03,North,-999,-999.0,-999.0,81,0.00,,,0.00,WSDL version 420,2013-04-10 12:32:00,
2013-04-10 08:37:00,73.7,67.1,30.00,North,-999,-999.0,-999.0,80,0.00,,,0.00,WSDL version 420,2013-04-10 12:37:00,
2013-04-10 08:42:00,74.3,67.3,30.00,North,-999,-999.0,-999.0,79,0.00,,,0.00,WSDL version 420,2013-04-10 12:42:00,
2013-04-10 08:47:00,75.0,67.2,30.00,North,-999,-999.0,-999.0,76,0.00,,,0.00,WSDL version 420,2013-04-10 12:47:00,
2013-04-10 08:52:00,75.6,65.9,30.00,North,-999,-999.0,-999.0,72,0.00,,,0.00,WSDL version 420,2013-04-10 12:52:00,
2013-04-10 08:57:00,75.6,65.6,30.00,North,-999,-999.0,-999.0,71,0.00,,,0.00,WSDL version 420,2013-04-10 12:57:00,
2013-04-10 09:02:00,75.7,65.7,30.00,North,-999,-999.0,-999.0,71,0.00,,,0.00,WSDL version 420,2013-04-10 13:02:00,
2013-04-10 09:07:00,75.7,65.4,30.00,North,-999,-999.0,-999.0,71,0.00,,,0.00,WSDL version 420,2013-04-10 13:07:00,
2013-04-10 09:12:00,75.7,65.7,30.00,North,-999,-999.0,-999.0,71,0.00,,,0.00,WSDL version 420,2013-04-10 13:12:00,
2013-04-10 09:17:00,76.6,66.6,30.00,North,-999,-999.0,-999.0,71,0.00,,,0.00,WSDL version 420,2013-04-10 13:17:00,
2013-04-10 09:22:00,77.9,66.8,30.03,North,-999,-999.0,-999.0,68,0.00,,,0.00,WSDL version 420,2013-04-10 13:22:00,
2013-04-10 09:27:00,79.1,66.9,30.03,North,-999,-999.0,-999.0,66,0.00,,,0.00,WSDL version 420,2013-04-10 13:27:00,
2013-04-10 09:32:00,79.5,66.2,30.03,North,-999,-999.0,-999.0,64,0.00,,,0.00,WSDL version 420,2013-04-10 13:32:00,
2013-04-10 09:37:00,79.4,65.0,30.03,North,-999,-999.0,-999.0,60,0.00,,,0.00,WSDL version 420,2013-04-10 13:37:00,
2013-04-10 09:42:00,78.6,64.3,30.03,North,-999,-999.0,-999.0,62,0.00,,,0.00,WSDL version 420,2013-04-10 13:42:00,
2013-04-10 09:47:00,78.3,64.5,30.03,North,-999,-999.0,-999.0,63,0.00,,,0.00,WSDL version 420,2013-04-10 13:47:00,
2013-04-10 09:52:00,78.8,65.2,30.03,North,-999,-999.0,-999.0,63,0.00,,,0.00,WSDL version 420,2013-04-10 13:52:00,
2013-04-10 09:57:00,79.2,65.5,30.03,North,-999,-999.0,-999.0,63,0.00,,,0.00,WSDL version 420,2013-04-10 13:57:00,
2013-04-10 10:02:00,79.5,65.8,30.03,North,-999,-999.0,-999.0,63,0.00,,,0.00,WSDL version 420,2013-04-10 14:02:00,
2013-04-10 10:09:00,79.7,66.2,30.03,North,-999,-999.0,-999.0,63,0.00,,,0.00,WSDL version 420,2013-04-10 14:09:00,
2013-04-10 10:14:00,79.9,66.5,30.03,North,-999,-999.0,-999.0,63,0.00,,,0.00,WSDL version 420,2013-04-10 14:14:00,
2013-04-10 10:19:00,79.8,66.1,30.03,North,-999,-999.0,-999.0,63,0.00,,,0.00,WSDL version 420,2013-04-10 14:19:00,
2013-04-10 10:24:00,79.6,66.1,30.06,North,-999,-999.0,-999.0,64,0.00,,,0.00,WSDL version 420,2013-04-10 14:24:00,
2013-04-10 10:29:00,80.0,66.5,30.06,North,-999,-999.0,-999.0,64,0.00,,,0.00,WSDL version 420,2013-04-10 14:29:00,
2013-04-10 10:34:00,80.0,66.5,30.06,North,-999,-999.0,-999.0,63,0.00,,,0.00,WSDL version 420,2013-04-10 14:34:00,
2013-04-10 10:39:00,79.6,66.1,30.06,North,-999,-999.0,-999.0,64,0.00,,,0.00,WSDL version 420,2013-04-10 14:39:00,
2013-04-10 10:44:00,80.0,66.7,30.06,North,-999,-999.0,-999.0,64,0.00,,,0.00,WSDL version 420,2013-04-10 14:44:00,
2013-04-10 10:49:00,80.3,67.3,30.06,North,-999,-999.0,-999.0,65,0.00,,,0.00,WSDL version 420,2013-04-10 14:49:00,
2013-04-10 10:54:00,81.0,67.3,30.06,North,-999,-999.0,-999.0,63,0.00,,,0.00,WSDL version 420,2013-04-10 14:54:00,
2013-04-10 10:59:00,81.1,67.3,30.06,North,-999,-999.0,-999.0,63,0.00,,,0.00,WSDL version 420,2013-04-10 14:59:00,
2013-04-10 11:04:00,81.8,67.7,30.06,North,-999,-999.0,-999.0,61,0.00,,,0.00,WSDL version 420,2013-04-10 15:04:00,
2013-04-10 11:09:00,81.5,66.9,30.06,North,-999,-999.0,-999.0,60,0.00,,,0.00,WSDL version 420,2013-04-10 15:09:00,
2013-04-10 11:14:00,80.7,65.8,30.06,North,-999,-999.0,-999.0,61,0.00,,,0.00,WSDL version 420,2013-04-10 15:14:00,
2013-04-10 11:19:00,80.5,66.3,30.06,North,-999,-999.0,-999.0,63,0.00,,,0.00,WSDL version 420,2013-04-10 15:19:00,
2013-04-10 11:24:00,80.2,66.3,30.06,North,-999,-999.0,-999.0,63,0.00,,,0.00,WSDL version 420,2013-04-10 15:24:00,
2013-04-10 11:29:00,79.8,66.1,30.06,North,-999,-999.0,-999.0,63,0.00,,,0.00,WSDL version 420,2013-04-10 15:29:00,
2013-04-10 11:34:00,79.7,66.5,30.06,North,-999,-999.0,-999.0,64,0.00,,,0.00,WSDL version 420,2013-04-10 15:34:00,
2013-04-10 11:39:00,79.8,66.8,30.06,North,-999,-999.0,-999.0,64,0.00,,,0.00,WSDL version 420,2013-04-10 15:39:00,
2013-04-10 11:44:00,80.5,67.3,30.06,North,-999,-999.0,-999.0,64,0.00,,,0.00,WSDL version 420,2013-04-10 15:44:00,
2013-04-10 11:49:00,81.6,68.2,30.06,North,-999,-999.0,-999.0,64,0.00,,,0.00,WSDL version 420,2013-04-10 15:49:00,
2013-04-10 11:54:00,82.5,68.8,30.06,North,-999,-999.0,-999.0,63,0.00,,,0.00,WSDL version 420,2013-04-10 15:54:00,
2013-04-10 11:59:00,82.4,67.7,30.06,North,-999,-999.0,-999.0,61,0.00,,,0.00,WSDL version 420,2013-04-10 15:59:00,
2013-04-10 12:04:00,82.4,67.5,30.06,North,-999,-999.0,-999.0,60,0.00,,,0.00,WSDL version 420,2013-04-10 16:04:00,
2013-04-10 12:09:00,82.4,67.8,30.03,North,-999,-999.0,-999.0,62,0.00,,,0.00,WSDL version 420,2013-04-10 16:09:00,
2013-04-10 12:14:00,83.8,69.5,30.03,North,-999,-999.0,-999.0,62,0.00,,,0.00,WSDL version 420,2013-04-10 16:14:00,
2013-04-10 12:19:00,84.7,69.4,30.03,North,-999,-999.0,-999.0,59,0.00,,,0.00,WSDL version 420,2013-04-10 16:19:00,
2013-04-10 12:24:00,85.2,68.6,30.03,North,-999,-999.0,-999.0,57,0.00,,,0.00,WSDL version 420,2013-04-10 16:24:00,
2013-04-10 12:29:00,84.7,66.8,30.03,North,-999,-999.0,-999.0,54,0.00,,,0.00,WSDL version 420,2013-04-10 16:29:00,
2013-04-10 12:34:00,83.8,66.1,30.03,North,-999,-999.0,-999.0,57,0.00,,,0.00,WSDL version 420,2013-04-10 16:34:00,
2013-04-10 12:39:00,83.3,66.4,30.03,North,-999,-999.0,-999.0,57,0.00,,,0.00,WSDL version 420,2013-04-10 16:39:00,
2013-04-10 12:44:00,83.3,66.5,30.03,North,-999,-999.0,-999.0,57,0.00,,,0.00,WSDL version 420,2013-04-10 16:44:00,
2013-04-10 12:49:00,83.5,66.4,30.03,North,-999,-999.0,-999.0,55,0.00,,,0.00,WSDL version 420,2013-04-10 16:49:00,
2013-04-10 12:54:00,83.9,66.3,30.00,North,-999,-999.0,-999.0,56,0.00,,,0.00,WSDL version 420,2013-04-10 16:54:00,
2013-04-10 12:59:00,84.2,66.8,30.00,North,-999,-999.0,-999.0,56,0.00,,,0.00,WSDL version 420,2013-04-10 16:59:00,
2013-04-10 13:04:00,83.9,66.0,30.00,North,-999,-999.0,-999.0,55,0.00,,,0.00,WSDL version 420,2013-04-10 17:04:00,
2013-04-10 13:09:00,83.3,65.6,30.00,North,-999,-999.0,-999.0,56,0.00,,,0.00,WSDL version 420,2013-04-10 17:09:00,
2013-04-10 13:14:00,83.7,66.8,30.00,North,-999,-999.0,-999.0,57,0.00,,,0.00,WSDL version 420,2013-04-10 17:14:00,
2013-04-10 13:19:00,84.0,66.3,30.00,North,-999,-999.0,-999.0,56,0.00,,,0.00,WSDL version 420,2013-04-10 17:19:00,
2013-04-10 13:24:00,83.7,66.0,30.00,North,-999,-999.0,-999.0,57,0.00,,,0.00,WSDL version 420,2013-04-10 17:24:00,
2013-04-10 13:29:00,83.8,67.2,30.00,North,-999,-999.0,-999.0,57,0.00,,,0.00,WSDL version 420,2013-04-10 17:29:00,
2013-04-10 13:34:00,84.0,66.7,30.00,North,-999,-999.0,-999.0,57,0.00,,,0.00,WSDL version 420,2013-04-10 17:34:00,
2013-04-10 13:39:00,83.8,65.5,30.00,North,-999,-999.0,-999.0,55,0.00,,,0.00,WSDL version 420,2013-04-10 17:39:00,
2013-04-10 13:44:00,83.3,65.5,30.00,North,-999,-999.0,-999.0,55,0.00,,,0.00,WSDL version 420,2013-04-10 17:44:00,
2013-04-10 13:49:00,83.5,65.7,30.00,North,-999,-999.0,-999.0,56,0.00,,,0.00,WSDL version 420,2013-04-10 17:49:00,
2013-04-10 13:54:00,84.2,66.2,29.97,North,-999,-999.0,-999.0,54,0.00,,,0.00,WSDL version 420,2013-04-10 17:54:00,
2013-04-10 13:59:00,84.4,66.2,29.97,North,-999,-999.0,-999.0,55,0.00,,,0.00,WSDL version 420,2013-04-10 17:59:00,
2013-04-10 14:09:00,85.3,66.8,29.97,SSW,203,4.5,8.1,55,0.00,,,0.00,WSDL version 420,2013-04-10 18:09:00,
2013-04-10 14:14:00,85.4,66.3,29.97,SSW,203,4.5,4.5,52,0.00,,,0.00,WSDL version 420,2013-04-10 18:14:00,
2013-04-10 14:19:00,84.9,65.0,29.97,SSW,203,4.5,4.5,51,0.00,,,0.00,WSDL version 420,2013-04-10 18:19:00,
2013-04-10 14:24:00,85.2,66.1,30.00,North,0,0.0,4.3,53,0.00,,,0.00,WSDL version 420,2013-04-10 18:24:00,
2013-04-10 14:29:00,85.5,65.6,30.00,North,0,0.0,4.3,51,0.00,,,0.00,WSDL version 420,2013-04-10 18:29:00,
2013-04-10 14:34:00,84.6,64.9,30.00,North,-999,-999.0,-999.0,53,0.00,,,0.00,WSDL version 420,2013-04-10 18:34:00,
2013-04-10 14:39:00,84.5,66.1,30.00,North,-999,-999.0,-999.0,54,0.00,,,0.00,WSDL version 420,2013-04-10 18:39:00,
2013-04-10 14:44:00,84.0,65.2,30.00,North,-999,-999.0,-999.0,54,0.00,,,0.00,WSDL version 420,2013-04-10 18:44:00,
2013-04-10 14:49:00,83.9,65.2,30.00,West,270,3.4,4.7,54,0.00,,,0.00,WSDL version 420,2013-04-10 18:49:00,
2013-04-10 14:54:00,85.1,66.9,30.00,West,270,3.4,4.7,55,0.00,,,0.00,WSDL version 420,2013-04-10 18:54:00,
2013-04-10 14:59:00,85.6,65.2,30.00,West,270,3.4,4.7,50,0.00,,,0.00,WSDL version 420,2013-04-10 18:59:00,
2013-04-10 15:04:00,85.3,65.4,30.00,SSE,158,4.5,4.7,51,0.00,,,0.00,WSDL version 420,2013-04-10 19:04:00,
2013-04-10 15:09:00,86.0,66.4,30.00,SSE,158,4.5,4.5,53,0.00,,,0.00,WSDL version 420,2013-04-10 19:09:00,
2013-04-10 15:14:00,86.1,65.7,30.00,NE,45,4.5,7.2,51,0.00,,,0.00,WSDL version 420,2013-04-10 19:14:00,
2013-04-10 15:19:00,85.5,64.7,30.00,NE,45,4.5,7.2,51,0.00,,,0.00,WSDL version 420,2013-04-10 19:19:00,
2013-04-10 15:24:00,85.1,64.8,30.00,NE,45,4.5,7.2,51,0.00,,,0.00,WSDL version 420,2013-04-10 19:24:00,
2013-04-10 15:29:00,84.3,63.9,30.00,North,0,0.0,7.2,50,0.00,,,0.00,WSDL version 420,2013-04-10 19:29:00,
2013-04-10 15:34:00,83.8,63.7,30.00,North,0,0.0,7.2,51,0.00,,,0.00,WSDL version 420,2013-04-10 19:34:00,
2013-04-10 15:39:00,84.2,64.3,29.97,North,-999,-999.0,-999.0,51,0.00,,,0.00,WSDL version 420,2013-04-10 19:39:00,
2013-04-10 15:44:00,84.4,64.3,29.97,North,-999,-999.0,-999.0,53,0.00,,,0.00,WSDL version 420,2013-04-10 19:44:00,
2013-04-10 15:49:00,85.5,66.1,29.97,North,-999,-999.0,-999.0,52,0.00,,,0.00,WSDL version 420,2013-04-10 19:49:00,
2013-04-10 15:54:00,85.9,65.4,29.97,North,-999,-999.0,-999.0,49,0.00,,,0.00,WSDL version 420,2013-04-10 19:54:00,
2013-04-10 15:59:00,84.3,63.5,29.97,North,-999,-999.0,-999.0,50,0.00,,,0.00,WSDL version 420,2013-04-10 19:59:00,
2013-04-10 16:04:00,84.5,64.0,29.97,SE,135,3.1,3.1,50,0.00,,,0.00,WSDL version 420,2013-04-10 20:04:00,
2013-04-10 16:09:00,85.5,65.2,29.97,SE,135,3.1,3.1,51,0.00,,,0.00,WSDL version 420,2013-04-10 20:09:00,
2013-04-10 16:14:00,85.3,64.7,29.97,SE,135,3.1,3.1,50,0.00,,,0.00,WSDL version 420,2013-04-10 20:14:00,
2013-04-10 16:19:00,84.6,64.3,29.97,North,0,0.0,1.6,52,0.00,,,0.00,WSDL version 420,2013-04-10 20:19:00,
2013-04-10 16:24:00,85.2,65.8,29.97,North,0,0.0,1.6,53,0.00,,,0.00,WSDL version 420,2013-04-10 20:24:00,
2013-04-10 16:29:00,84.7,64.7,29.97,North,-999,-999.0,-999.0,52,0.00,,,0.00,WSDL version 420,2013-04-10 20:29:00,
2013-04-10 16:34:00,84.4,64.6,29.97,North,-999,-999.0,-999.0,52,0.00,,,0.00,WSDL version 420,2013-04-10 20:34:00,
2013-04-10 16:39:00,84.4,64.3,29.97,North,-999,-999.0,-999.0,52,0.00,,,0.00,WSDL version 420,2013-04-10 20:39:00,
2013-04-10 16:49:00,84.8,65.1,29.97,North,-999,-999.0,-999.0,52,0.00,,,0.00,WSDL version 420,2013-04-10 20:49:00,
2013-04-10 16:54:00,85.1,64.8,29.97,North,-999,-999.0,-999.0,50,0.00,,,0.00,WSDL version 420,2013-04-10 20:54:00,
2013-04-10 16:59:00,85.0,64.8,29.97,North,-999,-999.0,-999.0,51,0.00,,,0.00,WSDL version 420,2013-04-10 20:59:00,
2013-04-10 17:04:00,84.8,64.1,29.97,North,-999,-999.0,-999.0,49,0.00,,,0.00,WSDL version 420,2013-04-10 21:04:00,
2013-04-10 17:09:00,83.6,63.6,29.97,North,-999,-999.0,-999.0,52,0.00,,,0.00,WSDL version 420,2013-04-10 21:09:00,
2013-04-10 17:14:00,83.6,64.4,29.97,North,-999,-999.0,-999.0,52,0.00,,,0.00,WSDL version 420,2013-04-10 21:14:00,
2013-04-10 17:19:00,83.5,64.6,29.97,North,-999,-999.0,-999.0,53,0.00,,,0.00,WSDL version 420,2013-04-10 21:19:00,
2013-04-10 17:24:00,83.6,65.1,29.94,North,-999,-999.0,-999.0,54,0.00,,,0.00,WSDL version 420,2013-04-10 21:24:00,
2013-04-10 17:29:00,83.7,65.0,29.94,North,-999,-999.0,-999.0,53,0.00,,,0.00,WSDL version 420,2013-04-10 21:29:00,
2013-04-10 17:34:00,82.9,63.8,29.94,North,-999,-999.0,-999.0,53,0.00,,,0.00,WSDL version 420,2013-04-10 21:34:00,
2013-04-10 17:39:00,82.5,63.9,29.94,North,-999,-999.0,-999.0,54,0.00,,,0.00,WSDL version 420,2013-04-10 21:39:00,
2013-04-10 17:44:00,82.4,64.1,29.94,North,-999,-999.0,-999.0,54,0.00,,,0.00,WSDL version 420,2013-04-10 21:44:00,
2013-04-10 17:49:00,82.3,64.0,29.94,North,-999,-999.0,-999.0,54,0.00,,,0.00,WSDL version 420,2013-04-10 21:49:00,
2013-04-10 17:54:00,81.9,64.0,29.94,North,-999,-999.0,-999.0,55,0.00,,,0.00,WSDL version 420,2013-04-10 21:54:00,
2013-04-10 17:59:00,81.3,64.3,29.94,North,-999,-999.0,-999.0,57,0.00,,,0.00,WSDL version 420,2013-04-10 21:59:00,
2013-04-10 18:04:00,81.3,64.8,29.94,North,-999,-999.0,-999.0,57,0.00,,,0.00,WSDL version 420,2013-04-10 22:04:00,
2013-04-10 18:09:00,81.3,64.1,29.94,North,-999,-999.0,-999.0,56,0.00,,,0.00,WSDL version 420,2013-04-10 22:09:00,
2013-04-10 18:14:00,81.1,64.4,29.94,North,-999,-999.0,-999.0,57,0.00,,,0.00,WSDL version 420,2013-04-10 22:14:00,
2013-04-10 18:19:00,80.6,64.3,29.94,North,-999,-999.0,-999.0,58,0.00,,,0.00,WSDL version 420,2013-04-10 22:19:00,
2013-04-10 18:29:00,80.1,64.7,29.94,North,-999,-999.0,-999.0,60,0.00,,,0.00,WSDL version 420,2013-04-10 22:29:00,
2013-04-10 18:34:00,80.0,65.1,29.94,North,-999,-999.0,-999.0,60,0.00,,,0.00,WSDL version 420,2013-04-10 22:34:00,
2013-04-10 18:39:00,79.9,65.2,29.94,North,-999,-999.0,-999.0,61,0.00,,,0.00,WSDL version 420,2013-04-10 22:39:00,
2013-04-10 18:44:00,79.8,65.4,29.94,North,-999,-999.0,-999.0,61,0.00,,,0.00,WSDL version 420,2013-04-10 22:44:00,
2013-04-10 18:49:00,79.7,65.1,29.94,North,-999,-999.0,-999.0,61,0.00,,,0.00,WSDL version 420,2013-04-10 22:49:00,
2013-04-10 18:54:00,79.5,65.4,29.94,North,-999,-999.0,-999.0,62,0.00,,,0.00,WSDL version 420,2013-04-10 22:54:00,
2013-04-10 18:59:00,79.2,65.0,29.94,North,-999,-999.0,-999.0,62,0.00,,,0.00,WSDL version 420,2013-04-10 22:59:00,
2013-04-10 19:04:00,78.8,64.9,29.94,North,-999,-999.0,-999.0,63,0.00,,,0.00,WSDL version 420,2013-04-10 23:04:00,
2013-04-10 19:09:00,78.5,65.2,29.97,North,-999,-999.0,-999.0,64,0.00,,,0.00,WSDL version 420,2013-04-10 23:09:00,
2013-04-10 19:14:00,78.2,65.3,29.97,North,-999,-999.0,-999.0,65,0.00,,,0.00,WSDL version 420,2013-04-10 23:14:00,
2013-04-10 19:19:00,77.8,65.4,29.97,North,-999,-999.0,-999.0,66,0.00,,,0.00,WSDL version 420,2013-04-10 23:19:00,
2013-04-10 19:24:00,77.6,65.4,29.94,North,-999,-999.0,-999.0,66,0.00,,,0.00,WSDL version 420,2013-04-10 23:24:00,
2013-04-10 19:29:00,77.3,65.3,29.94,North,-999,-999.0,-999.0,67,0.00,,,0.00,WSDL version 420,2013-04-10 23:29:00,
2013-04-10 19:34:00,77.1,65.8,29.94,North,-999,-999.0,-999.0,68,0.00,,,0.00,WSDL version 420,2013-04-10 23:34:00,
2013-04-10 19:39:00,77.0,65.6,29.94,North,-999,-999.0,-999.0,68,0.00,,,0.00,WSDL version 420,2013-04-10 23:39:00,
2013-04-10 19:44:00,76.7,65.5,29.94,North,-999,-999.0,-999.0,69,0.00,,,0.00,WSDL version 420,2013-04-10 23:44:00,
2013-04-10 19:49:00,76.5,65.9,29.94,North,-999,-999.0,-999.0,70,0.00,,,0.00,WSDL version 420,2013-04-10 23:49:00,
2013-04-10 19:59:00,76.3,65.8,29.94,North,-999,-999.0,-999.0,70,0.00,,,0.00,WSDL version 420,2013-04-10 23:59:00,
2013-04-10 20:04:00,76.1,66.3,29.94,North,-999,-999.0,-999.0,72,0.00,,,0.00,WSDL version 420,2013-04-11 00:04:00,
2013-04-10 20:09:00,76.1,66.6,29.94,North,-999,-999.0,-999.0,73,0.00,,,0.00,WSDL version 420,2013-04-11 00:09:00,
2013-04-10 20:14:00,76.1,66.8,29.94,North,-999,-999.0,-999.0,73,0.00,,,0.00,WSDL version 420,2013-04-11 00:14:00,
2013-04-10 20:19:00,76.1,67.2,29.94,North,-999,-999.0,-999.0,74,0.00,,,0.00,WSDL version 420,2013-04-11 00:19:00,
2013-04-10 20:24:00,76.0,67.4,29.94,North,-999,-999.0,-999.0,75,0.00,,,0.00,WSDL version 420,2013-04-11 00:24:00,
2013-04-10 20:29:00,75.9,67.4,29.94,North,-999,-999.0,-999.0,75,0.00,,,0.00,WSDL version 420,2013-04-11 00:29:00,
2013-04-10 20:34:00,75.9,67.4,29.94,North,-999,-999.0,-999.0,75,0.00,,,0.00,WSDL version 420,2013-04-11 00:34:00,
2013-04-10 20:39:00,75.8,67.3,29.94,North,-999,-999.0,-999.0,75,0.00,,,0.00,WSDL version 420,2013-04-11 00:39:00,
2013-04-10 20:44:00,75.7,67.3,29.94,North,-999,-999.0,-999.0,75,0.00,,,0.00,WSDL version 420,2013-04-11 00:44:00,
2013-04-10 20:49:00,75.8,67.6,29.94,North,-999,-999.0,-999.0,76,0.00,,,0.00,WSDL version 420,2013-04-11 00:49:00,
2013-04-10 20:54:00,75.7,67.3,29.94,North,-999,-999.0,-999.0,75,0.00,,,0.00,WSDL version 420,2013-04-11 00:54:00,
2013-04-10 20:59:00,75.7,67.4,29.94,North,-999,-999.0,-999.0,76,0.00,,,0.00,WSDL version 420,2013-04-11 00:59:00,
2013-04-10 21:04:00,75.7,67.3,29.94,North,-999,-999.0,-999.0,75,0.00,,,0.00,WSDL version 420,2013-04-11 01:04:00,
2013-04-10 21:09:00,75.7,67.4,29.97,North,-999,-999.0,-999.0,75,0.00,,,0.00,WSDL version 420,2013-04-11 01:09:00,
2013-04-10 21:14:00,75.7,67.6,29.97,North,-999,-999.0,-999.0,76,0.00,,,0.00,WSDL version 420,2013-04-11 01:14:00,
2013-04-10 21:19:00,75.7,67.6,29.97,North,-999,-999.0,-999.0,76,0.00,,,0.00,WSDL version 420,2013-04-11 01:19:00,
2013-04-10 21:24:00,75.7,67.6,29.97,North,-999,-999.0,-999.0,76,0.00,,,0.00,WSDL version 420,2013-04-11 01:24:00,
2013-04-10 21:29:00,75.7,67.9,29.97,North,-999,-999.0,-999.0,77,0.00,,,0.00,WSDL version 420,2013-04-11 01:29:00,
2013-04-10 21:34:00,75.7,67.8,29.97,North,-999,-999.0,-999.0,77,0.00,,,0.00,WSDL version 420,2013-04-11 01:34:00,
2013-04-10 21:39:00,75.7,68.0,29.97,North,-999,-999.0,-999.0,77,0.00,,,0.00,WSDL version 420,2013-04-11 01:39:00,
2013-04-10 21:44:00,75.7,68.0,29.97,North,-999,-999.0,-999.0,77,0.00,,,0.00,WSDL version 420,2013-04-11 01:44:00,
2013-04-10 21:49:00,75.7,68.0,29.97,North,-999,-999.0,-999.0,77,0.00,,,0.00,WSDL version 420,2013-04-11 01:49:00,
2013-04-10 21:54:00,75.6,68.1,29.97,North,-999,-999.0,-999.0,78,0.00,,,0.00,WSDL version 420,2013-04-11 01:54:00,
2013-04-10 21:59:00,75.6,68.2,29.97,North,-999,-999.0,-999.0,78,0.00,,,0.00,WSDL version 420,2013-04-11 01:59:00,
2013-04-10 22:04:00,75.6,68.2,29.97,North,-999,-999.0,-999.0,78,0.00,,,0.00,WSDL version 420,2013-04-11 02:04:00,
2013-04-10 22:09:00,75.6,68.4,29.97,North,-999,-999.0,-999.0,78,0.00,,,0.00,WSDL version 420,2013-04-11 02:09:00,
2013-04-10 22:14:00,75.6,68.4,29.97,North,-999,-999.0,-999.0,79,0.00,,,0.00,WSDL version 420,2013-04-11 02:14:00,
2013-04-10 22:19:00,75.6,68.2,29.97,North,-999,-999.0,-999.0,78,0.00,,,0.00,WSDL version 420,2013-04-11 02:19:00,
2013-04-10 22:24:00,75.6,68.2,29.97,North,-999,-999.0,-999.0,78,0.00,,,0.00,WSDL version 420,2013-04-11 02:24:00,
2013-04-10 22:29:00,75.6,68.2,29.97,North,-999,-999.0,-999.0,78,0.00,,,0.00,WSDL version 420,2013-04-11 02:29:00,
2013-04-10 22:34:00,75.5,68.1,29.97,North,-999,-999.0,-999.0,78,0.00,,,0.00,WSDL version 420,2013-04-11 02:34:00,
2013-04-10 22:39:00,75.6,68.2,29.97,North,-999,-999.0,-999.0,78,0.00,,,0.00,WSDL version 420,2013-04-11 02:39:00,
2013-04-10 22:44:00,75.4,68.1,29.97,North,-999,-999.0,-999.0,78,0.00,,,0.00,WSDL version 420,2013-04-11 02:44:00,
2013-04-10 22:49:00,75.4,68.0,29.97,North,-999,-999.0,-999.0,78,0.00,,,0.00,WSDL version 420,2013-04-11 02:49:00,
2013-04-10 22:54:00,75.4,68.0,29.97,North,-999,-999.0,-999.0,78,0.00,,,0.00,WSDL version 420,2013-04-11 02:54:00,
2013-04-10 22:59:00,75.4,68.0,29.97,North,-999,-999.0,-999.0,78,0.00,,,0.00,WSDL version 420,2013-04-11 02:59:00,
2013-04-10 23:04:00,75.4,68.0,29.97,North,-999,-999.0,-999.0,78,0.00,,,0.00,WSDL version 420,2013-04-11 03:04:00,
2013-04-10 23:09:00,75.2,67.5,29.97,North,-999,-999.0,-999.0,77,0.00,,,0.00,WSDL version 420,2013-04-11 03:09:00,
2013-04-10 23:14:00,75.3,67.6,29.97,North,-999,-999.0,-999.0,77,0.00,,,0.00,WSDL version 420,2013-04-11 03:14:00,
2013-04-10 23:19:00,75.3,67.6,29.97,North,-999,-999.0,-999.0,77,0.00,,,0.00,WSDL version 420,2013-04-11 03:19:00,
2013-04-10 23:24:00,75.4,67.7,29.97,North,-999,-999.0,-999.0,77,0.00,,,0.00,WSDL version 420,2013-04-11 03:24:00,
2013-04-10 23:29:00,75.4,67.7,29.97,North,-999,-999.0,-999.0,77,0.00,,,0.00,WSDL version 420,2013-04-11 03:29:00,
2013-04-10 23:34:00,75.4,67.7,29.97,North,-999,-999.0,-999.0,77,0.00,,,0.00,WSDL version 420,2013-04-11 03:34:00,
2013-04-10 23:39:00,75.4,67.9,29.97,North,-999,-999.0,-999.0,78,0.00,,,0.00,WSDL version 420,2013-04-11 03:39:00,
2013-04-10 23:44:00,75.2,67.8,29.97,North,-999,-999.0,-999.0,78,0.00,,,0.00,WSDL version 420,2013-04-11 03:44:00,
2013-04-10 23:49:00,75.2,67.9,29.97,North,-999,-999.0,-999.0,78,0.00,,,0.00,WSDL version 420,2013-04-11 03:49:00,
2013-04-10 23:54:00,75.1,67.8,29.97,North,-999,-999.0,-999.0,78,0.00,,,0.00,WSDL version 420,2013-04-11 03:54:00,
2013-04-10 23:59:00,75.0,67.7,29.97,North,-999,-999.0,-999.0,78,0.00,,,0.00,WSDL version 420,2013-04-11 03:59:00,